Time;durP1;ratioP1;P1;durP2;ratioP2;P2;SDS_P1;SDS_P2;PMS_P1;PMS_P2;Temp;Humidity;BMP_temperature;BMP_pressure;BME280_temperature;BME280_humidity;BME280_pressure;Samples;Min_cycle;Max_cycle;Signal;HPM_P1;HPM_P2
2021/04/24 00:01:20;;;;;;;13.50;8.55;;;;;;;;;;5084742;28;20393;-67
2021/04/24 00:03:46;;;;;;;14.30;8.90;;;;;;;;;;5069045;28;20495;-67
2021/04/24 00:06:12;;;;;;;15.10;8.93;;;;;;;;;;5085492;28;20895;-67
2021/04/24 00:08:38;;;;;;;13.83;8.73;;;;;;;;;;5086271;28;20547;-67
2021/04/24 00:11:04;;;;;;;13.02;7.93;;;;;;;;;;5087237;28;20758;-67
2021/04/24 00:13:30;;;;;;;14.38;8.75;;;;;;;;;;5085566;28;20446;-67
2021/04/24 00:15:56;;;;;;;12.95;8.20;;;;;;;;;;5087153;28;20409;-67
2021/04/24 00:18:23;;;;;;;12.68;8.27;;;;;;;;;;5084968;28;20399;-67
2021/04/24 00:20:49;;;;;;;12.75;8.57;;;;;;;;;;5088537;28;20386;-67
2021/04/24 00:23:15;;;;;;;14.30;8.50;;;;;;;;;;5087841;28;20404;-68
2021/04/24 00:25:41;;;;;;;14.85;8.65;;;;;;;;;;5088681;28;20394;-67
2021/04/24 00:28:10;;;;;;;13.20;8.32;;;;;;;;;;5088948;28;20401;-67
2021/04/24 00:30:36;;;;;;;16.33;9.00;;;;;;;;;;5083183;28;20895;-67
2021/04/24 00:33:03;;;;;;;15.47;9.07;;;;;;;;;;5070628;28;20431;-67
2021/04/24 00:35:28;;;;;;;15.55;9.77;;;;;;;;;;5084933;28;20386;-67
2021/04/24 00:37:54;;;;;;;16.57;9.50;;;;;;;;;;5087390;28;20408;-67
2021/04/24 00:40:21;;;;;;;16.38;9.63;;;;;;;;;;5069019;28;20786;-67
2021/04/24 00:42:48;;;;;;;16.33;9.48;;;;;;;;;;5071654;28;20770;-66
2021/04/24 00:45:14;;;;;;;15.73;9.18;;;;;;;;;;5081863;28;20398;-66
2021/04/24 00:47:40;;;;;;;13.57;8.98;;;;;;;;;;5082493;28;20373;-68
2021/04/24 00:50:07;;;;;;;13.55;9.23;;;;;;;;;;5086911;28;20506;-67
2021/04/24 00:52:33;;;;;;;15.52;9.27;;;;;;;;;;5088395;28;20405;-67
2021/04/24 00:54:59;;;;;;;14.80;9.60;;;;;;;;;;5086051;28;20410;-67
2021/04/24 00:57:27;;;;;;;14.53;9.00;;;;;;;;;;5084938;28;20552;-68
2021/04/24 00:59:53;;;;;;;13.40;9.15;;;;;;;;;;5085718;28;20709;-67
2021/04/24 01:02:19;;;;;;;15.00;8.98;;;;;;;;;;5080786;28;20713;-67
2021/04/24 01:04:45;;;;;;;16.50;9.60;;;;;;;;;;5084092;28;20396;-67
2021/04/24 01:07:11;;;;;;;14.77;9.32;;;;;;;;;;5084343;28;20485;-68
2021/04/24 01:09:37;;;;;;;16.85;9.93;;;;;;;;;;5085518;28;20413;-67
2021/04/24 01:12:04;;;;;;;18.85;9.65;;;;;;;;;;5084881;28;20434;-67
2021/04/24 01:14:30;;;;;;;14.02;9.15;;;;;;;;;;5087527;28;20415;-67
2021/04/24 01:16:56;;;;;;;16.65;8.88;;;;;;;;;;5084640;28;20389;-67
2021/04/24 01:19:26;;;;;;;15.52;9.20;;;;;;;;;;5080603;28;20446;-66
2021/04/24 01:21:53;;;;;;;13.50;8.15;;;;;;;;;;5084042;28;20465;-66
2021/04/24 01:24:21;;;;;;;14.55;8.57;;;;;;;;;;5087175;28;20403;-67
2021/04/24 01:26:48;;;;;;;13.15;8.40;;;;;;;;;;5082048;28;20386;-67
2021/04/24 01:29:14;;;;;;;15.55;9.20;;;;;;;;;;5084805;28;20390;-66
2021/04/24 01:31:40;;;;;;;13.13;8.68;;;;;;;;;;5082786;28;20390;-68
2021/04/24 01:34:07;;;;;;;13.13;8.60;;;;;;;;;;5080081;28;20421;-67
2021/04/24 01:36:33;;;;;;;13.55;8.27;;;;;;;;;;5081735;28;20480;-66
2021/04/24 01:38:59;;;;;;;13.57;8.68;;;;;;;;;;5082478;28;20477;-67
2021/04/24 01:41:25;;;;;;;16.77;9.05;;;;;;;;;;5086131;28;20439;-67
2021/04/24 01:43:52;;;;;;;13.13;9.13;;;;;;;;;;5085956;28;20410;-67
2021/04/24 01:46:18;;;;;;;14.73;8.95;;;;;;;;;;5085006;28;20961;-67
2021/04/24 01:48:44;;;;;;;14.48;9.27;;;;;;;;;;5082473;28;20403;-66
2021/04/24 01:51:11;;;;;;;13.23;8.75;;;;;;;;;;5081470;28;20378;-66
2021/04/24 01:53:38;;;;;;;15.00;8.95;;;;;;;;;;5063152;28;20960;-66
2021/04/24 01:56:04;;;;;;;13.50;9.05;;;;;;;;;;5087554;28;20911;-66
2021/04/24 01:58:30;;;;;;;14.10;8.90;;;;;;;;;;5084431;28;20394;-67
2021/04/24 02:01:04;;;;;;;14.27;9.27;;;;;;;;;;5086061;28;20477;-66
2021/04/24 02:03:30;;;;;;;15.37;9.50;;;;;;;;;;5084828;28;20573;-66
2021/04/24 02:05:56;;;;;;;12.52;8.35;;;;;;;;;;5084576;28;20481;-67
2021/04/24 02:08:31;;;;;;;14.88;8.77;;;;;;;;;;5083471;28;20889;-67
2021/04/24 02:10:58;;;;;;;14.75;8.75;;;;;;;;;;5082238;28;20948;-66
2021/04/24 02:13:26;;;;;;;12.13;8.40;;;;;;;;;;5086964;28;20461;-67
2021/04/24 02:15:52;;;;;;;13.70;8.05;;;;;;;;;;5086513;28;20505;-66
2021/04/24 02:18:18;;;;;;;15.27;9.18;;;;;;;;;;5065757;28;20485;-66
2021/04/24 02:20:44;;;;;;;13.32;8.85;;;;;;;;;;5082041;28;20394;-66
2021/04/24 02:23:11;;;;;;;15.40;8.75;;;;;;;;;;5085070;28;20401;-66
2021/04/24 02:25:37;;;;;;;14.25;9.38;;;;;;;;;;5084228;28;20889;-66
2021/04/24 02:28:04;;;;;;;14.30;9.25;;;;;;;;;;5083863;28;20413;-67
2021/04/24 02:30:30;;;;;;;15.50;9.23;;;;;;;;;;5086149;28;20758;-66
2021/04/24 02:32:56;;;;;;;16.15;9.70;;;;;;;;;;5084654;28;20455;-67
2021/04/24 02:35:28;;;;;;;14.73;9.73;;;;;;;;;;5067858;28;20398;-68
2021/04/24 02:37:54;;;;;;;14.50;9.45;;;;;;;;;;5084406;28;20397;-67
2021/04/24 02:40:21;;;;;;;17.05;9.75;;;;;;;;;;5084244;28;20478;-67
2021/04/24 02:42:47;;;;;;;18.25;9.88;;;;;;;;;;5081720;28;20428;-67
2021/04/24 02:45:14;;;;;;;15.80;9.55;;;;;;;;;;5064395;28;20721;-69
2021/04/24 02:47:40;;;;;;;14.73;9.50;;;;;;;;;;5080871;28;20685;-67
2021/04/24 02:50:07;;;;;;;14.70;9.18;;;;;;;;;;5084069;28;20423;-66
2021/04/24 02:52:34;;;;;;;14.68;9.55;;;;;;;;;;5082294;28;20405;-66
2021/04/24 02:55:00;;;;;;;14.90;9.30;;;;;;;;;;5082192;28;20430;-66
2021/04/24 02:57:26;;;;;;;15.30;9.48;;;;;;;;;;5087548;28;20713;-66
2021/04/24 02:59:52;;;;;;;14.98;9.23;;;;;;;;;;5067125;28;20398;-66
2021/04/24 03:02:18;;;;;;;16.10;9.00;;;;;;;;;;5085945;28;20476;-67
2021/04/24 03:04:44;;;;;;;13.85;9.50;;;;;;;;;;5087929;28;20914;-66
2021/04/24 03:07:11;;;;;;;15.77;9.35;;;;;;;;;;5084612;28;20395;-68
2021/04/24 03:09:37;;;;;;;13.63;9.32;;;;;;;;;;5070217;28;20755;-67
2021/04/24 03:12:03;;;;;;;22.63;9.10;;;;;;;;;;5088681;28;20413;-67
2021/04/24 03:14:29;;;;;;;17.55;9.70;;;;;;;;;;5071385;28;20877;-67
2021/04/24 03:16:55;;;;;;;14.55;9.50;;;;;;;;;;5085111;28;20444;-66
2021/04/24 03:19:21;;;;;;;17.20;9.80;;;;;;;;;;5085267;28;20394;-67
2021/04/24 03:21:46;;;;;;;15.05;9.35;;;;;;;;;;5087994;28;20394;-66
2021/04/24 03:24:13;;;;;;;15.88;9.15;;;;;;;;;;5086999;28;20426;-66
2021/04/24 03:26:38;;;;;;;14.20;8.68;;;;;;;;;;5085712;28;20390;-66
2021/04/24 03:29:04;;;;;;;14.77;9.23;;;;;;;;;;5088979;28;20481;-66
2021/04/24 03:31:31;;;;;;;13.68;9.00;;;;;;;;;;5087933;28;20429;-66
2021/04/24 03:33:57;;;;;;;15.30;9.45;;;;;;;;;;5064693;28;20718;-66
2021/04/24 03:36:22;;;;;;;15.70;9.50;;;;;;;;;;5082939;28;20405;-66
2021/04/24 03:38:49;;;;;;;15.57;9.18;;;;;;;;;;5086354;28;20832;-66
2021/04/24 03:41:15;;;;;;;14.63;8.93;;;;;;;;;;5088982;28;20390;-67
2021/04/24 03:43:41;;;;;;;17.15;8.55;;;;;;;;;;5087802;28;20382;-66
2021/04/24 03:46:07;;;;;;;15.18;8.75;;;;;;;;;;5086308;28;20391;-66
2021/04/24 03:48:33;;;;;;;13.98;8.70;;;;;;;;;;5082482;28;20431;-67
2021/04/24 03:51:00;;;;;;;16.73;8.80;;;;;;;;;;5085384;28;20449;-66
2021/04/24 03:53:26;;;;;;;13.20;8.57;;;;;;;;;;5072469;28;20410;-66
2021/04/24 03:55:51;;;;;;;13.73;9.23;;;;;;;;;;5087589;28;20396;-67
2021/04/24 03:58:17;;;;;;;14.43;9.15;;;;;;;;;;5087561;28;20399;-66
2021/04/24 04:00:43;;;;;;;13.25;8.38;;;;;;;;;;5084916;28;20707;-66
2021/04/24 04:03:10;;;;;;;14.25;8.57;;;;;;;;;;5067285;28;20397;-66
2021/04/24 04:05:37;;;;;;;16.27;9.20;;;;;;;;;;5088685;28;20413;-66
2021/04/24 04:08:04;;;;;;;16.50;9.13;;;;;;;;;;5087431;28;20386;-67
2021/04/24 04:10:30;;;;;;;18.70;8.85;;;;;;;;;;5085509;28;20393;-66
2021/04/24 04:12:57;;;;;;;15.57;8.85;;;;;;;;;;5085966;28;20904;-66
2021/04/24 04:15:24;;;;;;;16.23;9.00;;;;;;;;;;5085118;28;20884;-67
2021/04/24 04:17:54;;;;;;;15.40;9.35;;;;;;;;;;5083459;28;20392;-66
2021/04/24 04:20:20;;;;;;;14.45;9.18;;;;;;;;;;5084905;28;20877;-66
2021/04/24 04:22:46;;;;;;;13.13;8.60;;;;;;;;;;5087322;28;20935;-67
2021/04/24 04:25:13;;;;;;;15.63;8.90;;;;;;;;;;5071384;28;20481;-66
2021/04/24 04:27:39;;;;;;;15.50;9.00;;;;;;;;;;5067762;28;20386;-66
2021/04/24 04:30:06;;;;;;;16.55;9.43;;;;;;;;;;5068879;28;20387;-67
2021/04/24 04:32:32;;;;;;;16.10;9.65;;;;;;;;;;5084966;28;20441;-67
2021/04/24 04:34:59;;;;;;;15.32;10.40;;;;;;;;;;5087105;28;20428;-67
2021/04/24 04:37:25;;;;;;;15.13;9.43;;;;;;;;;;5081264;28;20834;-67
2021/04/24 04:39:51;;;;;;;16.30;9.93;;;;;;;;;;5084044;28;20857;-66
2021/04/24 04:42:17;;;;;;;17.30;9.48;;;;;;;;;;5086076;28;20700;-66
2021/04/24 04:44:43;;;;;;;15.23;9.23;;;;;;;;;;5084506;28;20839;-67
2021/04/24 04:47:09;;;;;;;16.77;10.20;;;;;;;;;;5086077;28;20471;-67
2021/04/24 04:49:35;;;;;;;19.02;10.75;;;;;;;;;;5083527;28;20405;-67
2021/04/24 04:52:01;;;;;;;18.13;10.70;;;;;;;;;;5086426;28;20439;-67
2021/04/24 04:54:27;;;;;;;21.00;11.63;;;;;;;;;;5085185;28;20422;-67
2021/04/24 04:56:53;;;;;;;17.88;11.20;;;;;;;;;;5070000;28;20715;-67
2021/04/24 04:59:19;;;;;;;18.90;11.13;;;;;;;;;;5070055;28;21079;-67
2021/04/24 05:01:45;;;;;;;20.35;12.45;;;;;;;;;;5083165;28;20481;-67
2021/04/24 05:04:11;;;;;;;18.70;11.90;;;;;;;;;;5086764;28;20394;-66
2021/04/24 05:06:37;;;;;;;18.70;11.33;;;;;;;;;;5085448;28;20481;-66
2021/04/24 05:09:03;;;;;;;17.80;11.43;;;;;;;;;;5086204;28;20492;-67
2021/04/24 05:11:29;;;;;;;19.73;12.00;;;;;;;;;;5085656;28;20411;-67
2021/04/24 05:13:55;;;;;;;21.38;12.68;;;;;;;;;;5084221;28;20886;-67
2021/04/24 05:16:21;;;;;;;19.45;12.02;;;;;;;;;;5083544;28;20390;-66
2021/04/24 05:18:47;;;;;;;18.13;11.93;;;;;;;;;;5080060;28;20454;-67
2021/04/24 05:21:13;;;;;;;20.83;11.75;;;;;;;;;;5085985;28;20397;-67
2021/04/24 05:23:39;;;;;;;20.05;12.05;;;;;;;;;;5083789;28;20390;-67
2021/04/24 05:26:05;;;;;;;22.88;13.75;;;;;;;;;;5085398;28;20458;-66
2021/04/24 05:28:31;;;;;;;22.63;14.13;;;;;;;;;;5083353;28;20433;-67
2021/04/24 05:30:58;;;;;;;22.45;13.63;;;;;;;;;;5086664;28;20393;-67
2021/04/24 05:33:24;;;;;;;24.73;13.82;;;;;;;;;;5070457;28;20985;-67
2021/04/24 05:35:50;;;;;;;19.93;13.00;;;;;;;;;;5080836;28;20395;-67
2021/04/24 05:38:16;;;;;;;23.92;13.75;;;;;;;;;;5067566;28;20469;-66
2021/04/24 05:40:42;;;;;;;24.80;14.95;;;;;;;;;;5089953;28;20871;-66
2021/04/24 05:43:08;;;;;;;22.80;14.20;;;;;;;;;;5071336;28;20514;-67
2021/04/24 05:45:34;;;;;;;23.55;14.07;;;;;;;;;;5086602;28;20386;-67
2021/04/24 05:48:00;;;;;;;22.50;14.00;;;;;;;;;;5089843;28;20487;-67
2021/04/24 05:50:26;;;;;;;25.25;14.98;;;;;;;;;;5088632;28;20416;-67
2021/04/24 05:52:52;;;;;;;27.73;16.70;;;;;;;;;;5088731;28;20887;-67
2021/04/24 05:55:18;;;;;;;24.08;15.73;;;;;;;;;;5091238;28;20408;-67
2021/04/24 05:57:44;;;;;;;27.63;16.67;;;;;;;;;;5090204;28;20386;-67
2021/04/24 06:00:12;;;;;;;28.55;16.55;;;;;;;;;;5090548;28;20899;-67
2021/04/24 06:02:38;;;;;;;28.02;18.13;;;;;;;;;;5072977;28;20390;-67
2021/04/24 06:05:05;;;;;;;29.90;18.30;;;;;;;;;;5088093;28;20762;-67
2021/04/24 06:07:31;;;;;;;30.17;18.15;;;;;;;;;;5084884;28;20749;-67
2021/04/24 06:09:57;;;;;;;29.20;18.27;;;;;;;;;;5067566;28;20402;-67
2021/04/24 06:12:23;;;;;;;28.33;17.95;;;;;;;;;;5088605;28;20382;-67
2021/04/24 06:14:49;;;;;;;29.98;17.73;;;;;;;;;;5069897;28;20413;-67
2021/04/24 06:17:15;;;;;;;29.55;18.60;;;;;;;;;;5073173;28;20820;-67
2021/04/24 06:19:41;;;;;;;30.17;18.95;;;;;;;;;;5071658;28;20509;-67
2021/04/24 06:22:07;;;;;;;26.50;18.05;;;;;;;;;;5090296;28;20482;-67
2021/04/24 06:24:36;;;;;;;27.75;18.08;;;;;;;;;;5069159;28;20867;-68
2021/04/24 06:27:02;;;;;;;27.25;17.65;;;;;;;;;;5070213;28;21635;-67
2021/04/24 06:29:31;;;;;;;27.90;18.10;;;;;;;;;;5089262;28;20389;-67
2021/04/24 06:31:57;;;;;;;27.63;17.40;;;;;;;;;;5077967;28;20679;-67
2021/04/24 06:34:23;;;;;;;27.13;16.77;;;;;;;;;;5079439;28;20428;-67
2021/04/24 06:36:49;;;;;;;24.73;15.32;;;;;;;;;;5060197;28;20391;-67
2021/04/24 06:39:15;;;;;;;23.20;15.25;;;;;;;;;;5098366;28;20445;-66
2021/04/24 06:41:41;;;;;;;24.45;15.88;;;;;;;;;;5112292;28;20384;-66
2021/04/24 06:44:07;;;;;;;24.63;16.33;;;;;;;;;;5087621;28;20770;-67
2021/04/24 06:46:33;;;;;;;24.27;15.50;;;;;;;;;;5090029;28;20406;-68
2021/04/24 06:48:59;;;;;;;24.23;15.60;;;;;;;;;;5073813;28;20451;-67
2021/04/24 06:51:25;;;;;;;22.65;14.70;;;;;;;;;;5092306;28;20841;-68
2021/04/24 06:53:52;;;;;;;23.23;14.20;;;;;;;;;;5098033;28;20423;-67
2021/04/24 06:56:18;;;;;;;21.10;13.45;;;;;;;;;;5091081;28;20422;-67
2021/04/24 06:58:44;;;;;;;22.83;13.40;;;;;;;;;;5097959;28;20920;-67
2021/04/24 07:01:10;;;;;;;20.77;12.65;;;;;;;;;;5064278;28;20479;-67
2021/04/24 07:03:37;;;;;;;19.40;11.55;;;;;;;;;;5089437;28;20512;-66
2021/04/24 07:06:03;;;;;;;17.70;10.85;;;;;;;;;;5092076;28;20878;-67
2021/04/24 07:08:29;;;;;;;17.85;11.18;;;;;;;;;;5082274;28;20479;-67
2021/04/24 07:10:54;;;;;;;17.73;10.35;;;;;;;;;;5072072;28;20481;-67
2021/04/24 07:13:20;;;;;;;16.42;9.68;;;;;;;;;;5093588;28;20388;-68
2021/04/24 07:15:46;;;;;;;17.48;9.50;;;;;;;;;;5104779;28;20476;-68
2021/04/24 07:18:12;;;;;;;16.52;9.95;;;;;;;;;;5074412;28;20423;-67
2021/04/24 07:20:38;;;;;;;17.25;9.45;;;;;;;;;;5082645;28;20705;-67
2021/04/24 07:23:04;;;;;;;14.73;8.50;;;;;;;;;;5096109;28;20436;-68
2021/04/24 07:25:30;;;;;;;15.55;9.57;;;;;;;;;;5091127;28;20400;-68
2021/04/24 07:27:56;;;;;;;15.63;9.55;;;;;;;;;;5081036;28;20374;-68
2021/04/24 07:30:23;;;;;;;14.60;8.00;;;;;;;;;;5071435;28;20402;-67
2021/04/24 07:32:49;;;;;;;13.27;7.68;;;;;;;;;;5091685;28;20394;-68
2021/04/24 07:35:15;;;;;;;15.43;8.02;;;;;;;;;;5075832;28;20422;-68
2021/04/24 07:37:41;;;;;;;13.52;7.78;;;;;;;;;;5088241;28;20377;-68
2021/04/24 07:40:07;;;;;;;13.57;7.10;;;;;;;;;;5092506;28;20719;-68
2021/04/24 07:42:34;;;;;;;13.10;7.40;;;;;;;;;;5092539;28;20372;-68
2021/04/24 07:44:59;;;;;;;11.30;6.50;;;;;;;;;;5092065;28;20930;-68
2021/04/24 07:47:26;;;;;;;10.85;6.28;;;;;;;;;;5089447;28;20366;-67
2021/04/24 07:49:52;;;;;;;11.15;6.20;;;;;;;;;;5088319;28;20381;-68
2021/04/24 07:52:19;;;;;;;10.90;6.03;;;;;;;;;;5082427;28;20435;-68
2021/04/24 07:54:45;;;;;;;10.65;5.97;;;;;;;;;;5090561;28;20417;-67
2021/04/24 07:57:12;;;;;;;9.30;4.85;;;;;;;;;;5091755;28;20449;-67
2021/04/24 07:59:38;;;;;;;7.68;4.38;;;;;;;;;;5091969;28;20371;-69
2021/04/24 08:02:04;;;;;;;9.05;4.60;;;;;;;;;;5090627;28;20444;-68
2021/04/24 08:04:31;;;;;;;8.65;4.80;;;;;;;;;;5083697;28;20376;-68
2021/04/24 08:06:57;;;;;;;7.35;3.95;;;;;;;;;;5092006;28;20397;-68
2021/04/24 08:09:23;;;;;;;8.32;4.60;;;;;;;;;;5073359;28;20619;-68
2021/04/24 08:11:49;;;;;;;9.50;4.25;;;;;;;;;;5092473;28;20426;-68
2021/04/24 08:14:15;;;;;;;7.22;4.30;;;;;;;;;;5091673;28;20733;-68
2021/04/24 08:16:41;;;;;;;10.40;4.70;;;;;;;;;;5087870;28;20487;-68
2021/04/24 08:19:07;;;;;;;9.90;4.33;;;;;;;;;;5078501;28;20374;-68
2021/04/24 08:21:33;;;;;;;8.82;3.90;;;;;;;;;;5091450;28;20374;-68
2021/04/24 08:24:01;;;;;;;6.90;3.95;;;;;;;;;;5091456;28;20740;-68
2021/04/24 08:26:28;;;;;;;6.72;3.50;;;;;;;;;;5079793;28;20409;-68
2021/04/24 08:28:54;;;;;;;6.60;3.50;;;;;;;;;;5081911;28;20390;-67
2021/04/24 08:31:20;;;;;;;7.20;3.60;;;;;;;;;;5082017;28;20437;-68
2021/04/24 08:33:46;;;;;;;7.25;3.70;;;;;;;;;;5088035;28;20489;-68
2021/04/24 08:36:12;;;;;;;6.95;3.67;;;;;;;;;;5090996;28;20484;-68
2021/04/24 08:38:38;;;;;;;7.87;3.80;;;;;;;;;;5082633;28;20371;-67
2021/04/24 08:41:04;;;;;;;8.27;3.78;;;;;;;;;;5090413;28;20699;-67
2021/04/24 08:43:31;;;;;;;7.13;4.22;;;;;;;;;;5076573;28;20382;-68
2021/04/24 08:46:01;;;;;;;9.30;4.38;;;;;;;;;;5080590;28;20382;-68
2021/04/24 08:48:27;;;;;;;8.18;4.22;;;;;;;;;;5086458;28;20370;-68
2021/04/24 08:50:54;;;;;;;8.45;4.18;;;;;;;;;;5091130;28;20431;-67
2021/04/24 08:53:21;;;;;;;6.37;3.43;;;;;;;;;;5091426;28;20890;-67
2021/04/24 08:55:47;;;;;;;8.05;4.05;;;;;;;;;;5091343;28;20374;-67
2021/04/24 08:58:13;;;;;;;8.63;3.45;;;;;;;;;;5091433;28;20381;-68
2021/04/24 09:00:41;;;;;;;7.50;3.60;;;;;;;;;;5076273;28;20461;-67
2021/04/24 09:03:11;;;;;;;9.63;3.58;;;;;;;;;;5104712;28;20746;-68
2021/04/24 09:05:37;;;;;;;6.78;3.70;;;;;;;;;;5071071;28;20376;-68
2021/04/24 09:08:08;;;;;;;8.63;3.72;;;;;;;;;;5071109;28;20368;-68
2021/04/24 09:10:43;;;;;;;8.80;4.05;;;;;;;;;;5076748;28;20402;-68
2021/04/24 09:13:10;;;;;;;7.13;3.60;;;;;;;;;;5086709;28;20907;-68
2021/04/24 09:15:36;;;;;;;7.90;4.00;;;;;;;;;;5086258;28;20411;-68
2021/04/24 09:18:04;;;;;;;9.52;4.63;;;;;;;;;;5078574;28;20404;-68
2021/04/24 09:20:31;;;;;;;11.15;5.10;;;;;;;;;;5090882;28;20815;-68
2021/04/24 09:22:59;;;;;;;9.90;5.07;;;;;;;;;;5090159;28;20447;-69
2021/04/24 09:25:29;;;;;;;8.90;4.40;;;;;;;;;;5090821;28;20381;-68
2021/04/24 09:27:55;;;;;;;6.63;4.18;;;;;;;;;;5082746;28;20408;-68
2021/04/24 09:30:22;;;;;;;7.63;4.40;;;;;;;;;;5070939;28;20891;-67
2021/04/24 09:32:48;;;;;;;7.63;4.50;;;;;;;;;;5078042;28;20390;-68
2021/04/24 09:35:22;;;;;;;8.90;4.72;;;;;;;;;;5090630;28;20416;-67
2021/04/24 09:37:55;;;;;;;7.80;4.50;;;;;;;;;;5083348;28;20385;-68
2021/04/24 09:40:21;;;;;;;12.05;5.80;;;;;;;;;;5090535;28;20374;-68
2021/04/24 09:42:47;;;;;;;11.20;5.60;;;;;;;;;;5089148;28;20386;-68
2021/04/24 09:45:13;;;;;;;11.70;6.10;;;;;;;;;;5089840;28;20821;-68
2021/04/24 09:47:41;;;;;;;9.20;5.80;;;;;;;;;;5089429;28;20469;-68
2021/04/24 09:50:15;;;;;;;10.48;5.82;;;;;;;;;;5086447;28;20588;-68
2021/04/24 09:52:41;;;;;;;9.07;5.20;;;;;;;;;;5086124;28;20374;-68
2021/04/24 09:55:07;;;;;;;11.57;5.53;;;;;;;;;;5088709;28;20423;-68
2021/04/24 09:57:34;;;;;;;10.80;5.90;;;;;;;;;;5086959;28;20874;-68
2021/04/24 10:00:02;;;;;;;10.65;5.50;;;;;;;;;;5088119;28;20374;-68
2021/04/24 10:02:32;;;;;;;9.88;5.28;;;;;;;;;;5087980;28;20386;-68
2021/04/24 10:05:18;;;;;;;10.40;5.55;;;;;;;;;;5084530;28;20386;-68
2021/04/24 10:07:48;;;;;;;9.88;5.03;;;;;;;;;;5085890;28;20464;-68
2021/04/24 10:10:25;;;;;;;10.68;6.13;;;;;;;;;;5089661;28;20406;-68
2021/04/24 10:13:01;;;;;;;11.23;5.88;;;;;;;;;;5086972;28;20381;-69
2021/04/24 10:15:37;;;;;;;9.43;5.57;;;;;;;;;;5068685;28;20572;-68
2021/04/24 10:18:04;;;;;;;10.65;5.93;;;;;;;;;;5085780;28;20428;-68
2021/04/24 10:20:35;;;;;;;10.75;5.88;;;;;;;;;;5082758;28;20823;-68
2021/04/24 10:23:02;;;;;;;8.30;5.28;;;;;;;;;;5089896;28;20366;-68
2021/04/24 10:25:29;;;;;;;8.15;5.20;;;;;;;;;;5071388;28;20816;-68
2021/04/24 10:27:55;;;;;;;9.95;5.40;;;;;;;;;;5081026;28;20707;-68
2021/04/24 10:30:21;;;;;;;10.40;5.20;;;;;;;;;;5089723;28;20454;-68
2021/04/24 10:32:47;;;;;;;9.20;5.30;;;;;;;;;;5089728;28;20402;-68
2021/04/24 10:35:14;;;;;;;9.80;5.72;;;;;;;;;;5089303;28;21183;-68
2021/04/24 10:37:40;;;;;;;10.88;5.50;;;;;;;;;;5088993;28;20374;-67
2021/04/24 10:40:06;;;;;;;11.00;5.75;;;;;;;;;;5088946;28;20358;-68
2021/04/24 10:42:33;;;;;;;11.98;6.00;;;;;;;;;;5076706;28;20713;-68
2021/04/24 10:45:00;;;;;;;10.02;5.68;;;;;;;;;;5087976;28;20378;-67
2021/04/24 10:47:39;;;;;;;9.05;5.40;;;;;;;;;;5080561;28;20376;-68
2021/04/24 10:50:20;;;;;;;10.82;5.60;;;;;;;;;;5073497;28;20366;-68
2021/04/24 10:52:46;;;;;;;10.07;6.17;;;;;;;;;;5085536;28;20447;-69
2021/04/24 10:55:12;;;;;;;9.23;5.80;;;;;;;;;;5082353;28;20903;-67
2021/04/24 10:57:41;;;;;;;13.27;5.60;;;;;;;;;;5085137;28;20402;-67
2021/04/24 11:00:07;;;;;;;9.17;5.30;;;;;;;;;;5086809;28;20437;-68
2021/04/24 11:02:39;;;;;;;8.90;5.20;;;;;;;;;;5089036;28;20736;-67
2021/04/24 11:05:22;;;;;;;7.95;4.75;;;;;;;;;;5070933;28;20410;-67
2021/04/24 11:07:48;;;;;;;8.23;5.00;;;;;;;;;;5056398;28;20391;-68
2021/04/24 11:10:17;;;;;;;9.98;5.45;;;;;;;;;;5078082;28;20825;-68
2021/04/24 11:12:44;;;;;;;8.77;4.78;;;;;;;;;;5052675;28;20851;-68
2021/04/24 11:15:11;;;;;;;8.50;4.68;;;;;;;;;;5085918;28;20948;-68
2021/04/24 11:17:38;;;;;;;6.75;4.05;;;;;;;;;;5088625;28;20374;-67
2021/04/24 11:20:06;;;;;;;8.35;4.53;;;;;;;;;;5087331;28;20453;-68
2021/04/24 11:22:33;;;;;;;8.77;4.38;;;;;;;;;;5082719;28;20388;-68
2021/04/24 11:25:28;;;;;;;9.07;4.93;;;;;;;;;;5091487;28;20378;-68
2021/04/24 11:28:01;;;;;;;9.27;4.68;;;;;;;;;;5070556;28;20398;-68
2021/04/24 11:30:47;;;;;;;8.23;4.57;;;;;;;;;;5090088;28;20435;-68
2021/04/24 11:33:32;;;;;;;9.32;4.78;;;;;;;;;;5074978;28;20431;-68
2021/04/24 11:36:25;;;;;;;13.68;4.40;;;;;;;;;;5083055;28;20469;-67
2021/04/24 11:38:57;;;;;;;9.25;4.35;;;;;;;;;;5085580;28;20395;-68
2021/04/24 11:41:29;;;;;;;11.47;5.47;;;;;;;;;;5081464;28;20430;-68
2021/04/24 11:43:55;;;;;;;13.65;5.32;;;;;;;;;;5086293;28;20378;-69
2021/04/24 11:46:35;;;;;;;9.68;5.28;;;;;;;;;;5086215;28;20390;-68
2021/04/24 11:49:05;;;;;;;8.73;5.10;;;;;;;;;;5089663;28;20710;-69
2021/04/24 11:51:31;;;;;;;8.43;4.60;;;;;;;;;;5089333;28;20398;-70
2021/04/24 11:53:58;;;;;;;10.07;4.40;;;;;;;;;;5093830;28;20440;-68
2021/04/24 11:56:24;;;;;;;9.38;4.57;;;;;;;;;;5087334;28;20435;-69
2021/04/24 11:58:50;;;;;;;8.95;4.50;;;;;;;;;;5096904;28;20811;-69
2021/04/24 12:01:27;;;;;;;9.30;4.85;;;;;;;;;;5099054;28;20391;-68
2021/04/24 12:03:53;;;;;;;10.52;5.15;;;;;;;;;;5095341;28;20451;-67
2021/04/24 12:06:52;;;;;;;9.65;4.47;;;;;;;;;;5085801;28;20415;-69
2021/04/24 12:09:18;;;;;;;10.77;4.60;;;;;;;;;;5046312;28;20411;-68
2021/04/24 12:11:56;;;;;;;9.40;4.32;;;;;;;;;;5087474;28;20386;-68
2021/04/24 12:14:22;;;;;;;8.32;4.45;;;;;;;;;;5074930;28;20498;-67
2021/04/24 12:16:49;;;;;;;11.85;5.13;;;;;;;;;;5089876;28;20436;-68
2021/04/24 12:19:24;;;;;;;10.05;4.60;;;;;;;;;;5092004;28;20419;-67
2021/04/24 12:22:20;;;;;;;9.35;4.70;;;;;;;;;;5083064;28;20431;-68
2021/04/24 12:24:50;;;;;;;8.25;4.35;;;;;;;;;;5064568;28;20379;-68
2021/04/24 12:27:25;;;;;;;9.70;4.55;;;;;;;;;;5087326;28;20400;-68
2021/04/24 12:29:52;;;;;;;10.98;4.40;;;;;;;;;;5085305;28;20374;-68
2021/04/24 12:32:19;;;;;;;8.37;4.43;;;;;;;;;;5087564;28;20378;-67
2021/04/24 12:34:45;;;;;;;8.68;4.05;;;;;;;;;;5073889;28;20423;-67
2021/04/24 12:37:14;;;;;;;10.85;4.80;;;;;;;;;;5087740;28;20417;-69
2021/04/24 12:39:41;;;;;;;11.52;4.20;;;;;;;;;;5089269;28;20381;-68
2021/04/24 12:42:11;;;;;;;10.15;4.40;;;;;;;;;;5081646;28;20398;-67
2021/04/24 12:44:38;;;;;;;9.82;4.40;;;;;;;;;;5088672;28;20413;-68
2021/04/24 12:47:04;;;;;;;9.90;4.25;;;;;;;;;;5084770;28;20408;-68
2021/04/24 12:49:31;;;;;;;9.35;4.22;;;;;;;;;;5087875;28;20390;-69
2021/04/24 12:52:04;;;;;;;7.78;3.85;;;;;;;;;;5076687;28;20394;-68
2021/04/24 12:54:30;;;;;;;10.50;3.80;;;;;;;;;;5082770;28;20426;-68
2021/04/24 12:57:18;;;;;;;9.75;4.18;;;;;;;;;;5088783;28;20835;-67
2021/04/24 12:59:44;;;;;;;7.63;3.95;;;;;;;;;;5057334;28;20425;-67
2021/04/24 13:02:10;;;;;;;8.63;3.85;;;;;;;;;;5089111;28;21169;-68
2021/04/24 13:04:56;;;;;;;8.60;3.70;;;;;;;;;;5082136;28;20740;-68
2021/04/24 13:07:22;;;;;;;8.75;4.00;;;;;;;;;;5067644;28;20404;-67
2021/04/24 13:09:47;;;;;;;11.27;3.63;;;;;;;;;;5056668;28;20410;-67
2021/04/24 13:12:16;;;;;;;10.07;3.42;;;;;;;;;;5096105;28;20530;-67
2021/04/24 13:14:41;;;;;;;;;;;;;;;;;;5088163;28;20434;-68
2021/04/24 13:17:07;;;;;;;;;;;;;;;;;;5081320;28;20962;-68
2021/04/24 13:19:45;;;;;;;9.27;3.40;;;;;;;;;;5088098;28;20437;-68
2021/04/24 13:22:11;;;;;;;7.72;3.58;;;;;;;;;;5100651;28;20405;-67
2021/04/24 13:24:47;;;;;;;9.43;3.55;;;;;;;;;;5089252;28;20386;-68
2021/04/24 13:27:23;;;;;;;9.73;3.40;;;;;;;;;;5089868;28;20469;-67
2021/04/24 13:29:48;;;;;;;8.25;3.33;;;;;;;;;;5088953;28;20380;-68
2021/04/24 13:32:14;;;;;;;10.70;3.42;;;;;;;;;;5085950;28;20713;-68
2021/04/24 13:34:43;;;;;;;9.93;3.67;;;;;;;;;;5085266;28;20907;-67
2021/04/24 13:37:11;;;;;;;7.53;3.05;;;;;;;;;;5083465;28;20402;-68
2021/04/24 13:39:45;;;;;;;8.57;3.35;;;;;;;;;;5078446;28;20414;-68
2021/04/24 13:42:13;;;;;;;8.23;3.20;;;;;;;;;;5070582;28;20435;-68
2021/04/24 13:44:40;;;;;;;7.45;3.03;;;;;;;;;;5087231;28;20404;-68
2021/04/24 13:47:17;;;;;;;8.77;3.00;;;;;;;;;;5085289;28;20389;-67
2021/04/24 13:49:43;;;;;;;7.38;3.15;;;;;;;;;;5085687;28;20402;-68
2021/04/24 13:52:09;;;;;;;10.13;2.95;;;;;;;;;;5086961;28;20805;-68
2021/04/24 13:54:35;;;;;;;10.33;3.23;;;;;;;;;;5074744;28;20415;-67
2021/04/24 13:57:01;;;;;;;8.30;3.00;;;;;;;;;;5075222;28;20893;-68
2021/04/24 13:59:27;;;;;;;8.10;2.80;;;;;;;;;;5088388;28;20657;-67
2021/04/24 14:01:53;;;;;;;6.60;2.80;;;;;;;;;;5062711;28;20417;-68
2021/04/24 14:04:19;;;;;;;7.68;2.80;;;;;;;;;;5087778;28;20390;-67
2021/04/24 14:06:45;;;;;;;9.65;3.10;;;;;;;;;;5072974;28;20372;-68
2021/04/24 14:09:12;;;;;;;8.65;3.35;;;;;;;;;;5077235;28;20389;-67
2021/04/24 14:11:41;;;;;;;7.68;2.72;;;;;;;;;;5089499;28;20419;-67
2021/04/24 14:14:07;;;;;;;7.80;2.67;;;;;;;;;;5076122;28;20415;-67
2021/04/24 14:16:35;;;;;;;6.60;2.50;;;;;;;;;;5076772;28;20412;-67
2021/04/24 14:19:01;;;;;;;6.95;2.55;;;;;;;;;;5089352;28;20370;-68
2021/04/24 14:21:27;;;;;;;6.38;2.40;;;;;;;;;;5085277;28;20386;-68
2021/04/24 14:23:53;;;;;;;8.43;2.87;;;;;;;;;;5076714;28;20794;-68
2021/04/24 14:26:19;;;;;;;6.63;2.50;;;;;;;;;;5065214;28;20473;-67
2021/04/24 14:28:45;;;;;;;7.95;2.30;;;;;;;;;;5089234;28;20397;-67
2021/04/24 14:31:13;;;;;;;5.60;2.40;;;;;;;;;;5085896;28;20382;-68
2021/04/24 14:33:39;;;;;;;7.00;2.20;;;;;;;;;;5078196;28;20446;-68
2021/04/24 14:36:05;;;;;;;7.23;2.30;;;;;;;;;;5087440;28;20385;-68